Time;durP1;ratioP1;P1;durP2;ratioP2;P2;SDS_P1;SDS_P2;PMS_P1;PMS_P2;Temp;Humidity;BMP_temperature;BMP_pressure;BME280_temperature;BME280_humidity;BME280_pressure;Samples;Min_cycle;Max_cycle;Signal;HPM_P1;HPM_P2
2021/07/29 00:00:56;;;;;;;6.97;4.07;;;;;;;17.23;96.66;97815.88;5029968;28;20121;-60
2021/07/29 00:03:21;;;;;;;7.65;4.47;;;;;;;16.83;100.00;97816.03;5028623;28;20032;-58
2021/07/29 00:05:49;;;;;;;6.22;4.38;;;;;;;16.83;99.57;97815.19;5033997;28;20036;-59
2021/07/29 00:08:14;;;;;;;6.72;4.40;;;;;;;16.83;99.90;97817.84;5028335;28;20022;-59
2021/07/29 00:10:40;;;;;;;5.18;3.60;;;;;;;16.89;100.00;97810.34;5033432;28;20479;-59
2021/07/29 00:13:05;;;;;;;7.80;4.75;;;;;;;16.77;100.00;97811.16;5030247;28;20033;-59
2021/07/29 00:15:31;;;;;;;7.80;4.40;;;;;;;17.22;96.84;97814.19;5031055;28;20080;-61
2021/07/29 00:20:24;;;;;;;9.25;4.50;;;;;;;16.73;99.80;97815.81;5028339;28;20381;-60
2021/07/29 00:22:52;;;;;;;8.73;4.70;;;;;;;16.48;100.00;97805.25;5031963;28;20707;-59
2021/07/29 00:25:19;;;;;;;6.32;4.68;;;;;;;16.46;100.00;97807.16;5031736;28;20028;-59
2021/07/29 00:27:45;;;;;;;8.45;4.72;;;;;;;16.35;100.00;97811.34;5028844;28;20099;-59
2021/07/29 00:30:12;;;;;;;8.82;4.90;;;;;;;16.33;100.00;97802.72;5029794;28;20109;-60
2021/07/29 00:32:38;;;;;;;8.40;4.70;;;;;;;16.44;100.00;97803.78;5029385;28;20017;-59
2021/07/29 00:35:05;;;;;;;8.20;4.57;;;;;;;16.29;100.00;97810.94;5031365;28;20531;-59
2021/07/29 00:37:33;;;;;;;8.55;4.15;;;;;;;16.45;100.00;97802.84;5031013;28;20033;-60
2021/07/29 00:39:58;;;;;;;7.60;4.57;;;;;;;16.36;100.00;97805.16;5029291;28;20021;-59
2021/07/29 00:42:24;;;;;;;5.65;3.58;;;;;;;16.66;100.00;97805.81;5030646;28;20041;-59
2021/07/29 00:44:49;;;;;;;7.60;4.80;;;;;;;16.31;100.00;97802.00;5030597;28;20029;-60
2021/07/29 00:47:16;;;;;;;4.97;3.60;;;;;;;16.89;99.76;97805.09;5030000;28;20044;-59
2021/07/29 00:49:42;;;;;;;5.93;3.95;;;;;;;16.50;99.89;97806.84;5030489;28;20479;-61
2021/07/29 00:52:08;;;;;;;5.50;3.78;;;;;;;16.56;100.00;97802.97;5031012;28;20082;-59
2021/07/29 00:54:34;;;;;;;6.07;3.95;;;;;;;16.62;99.97;97805.16;5030825;28;20033;-59
2021/07/29 00:57:02;;;;;;;10.52;4.80;;;;;;;15.94;100.00;97806.25;5030160;28;20124;-59
2021/07/29 00:59:28;;;;;;;8.10;4.60;;;;;;;15.86;100.00;97798.88;5029261;28;20841;-58
2021/07/29 01:01:54;;;;;;;8.10;5.10;;;;;;;15.79;100.00;97802.84;5029024;28;20044;-59
2021/07/29 01:04:19;;;;;;;8.85;4.80;;;;;;;16.01;100.00;97802.25;5029166;28;20078;-60
2021/07/29 01:06:45;;;;;;;8.35;4.28;;;;;;;16.33;100.00;97802.72;5027399;28;20155;-59
2021/07/29 01:09:11;;;;;;;6.68;3.40;;;;;;;16.36;100.00;97807.78;5027261;28;20034;-61
2021/07/29 01:11:41;;;;;;;7.53;4.40;;;;;;;15.67;100.00;97798.34;5026605;28;20044;-59
2021/07/29 01:14:07;;;;;;;6.93;4.65;;;;;;;15.66;100.00;97797.50;5029676;28;20032;-60
2021/07/29 01:16:33;;;;;;;8.40;4.35;;;;;;;15.79;100.00;97801.03;5028165;28;20067;-59
2021/07/29 01:19:01;;;;;;;8.38;4.60;;;;;;;16.09;100.00;97797.31;5026988;28;20055;-60
2021/07/29 01:21:27;;;;;;;8.27;4.68;;;;;;;15.80;100.00;97799.25;5028174;28;20038;-60
2021/07/29 01:23:53;;;;;;;8.93;4.90;;;;;;;15.32;100.00;97798.81;5031551;28;20053;-61
2021/07/29 01:26:18;;;;;;;7.90;4.90;;;;;;;15.54;100.00;97796.50;5027559;28;20061;-59
2021/07/29 01:28:43;;;;;;;5.53;4.00;;;;;;;15.56;100.00;97802.50;5027539;28;20693;-60
2021/07/29 01:31:09;;;;;;;7.18;4.35;;;;;;;15.43;100.00;97809.47;5028777;28;20538;-59
2021/07/29 01:33:38;;;;;;;6.60;4.38;;;;;;;15.74;100.00;97807.53;5030015;28;20036;-61
2021/07/29 01:36:04;;;;;;;9.65;4.47;;;;;;;15.70;100.00;97803.41;5026322;28;20403;-59
2021/07/29 01:38:30;;;;;;;6.57;4.28;;;;;;;15.76;100.00;97797.75;5028762;28;20564;-60
2021/07/29 01:40:55;;;;;;;8.60;4.65;;;;;;;15.88;100.00;97806.63;5027058;28;20044;-61
2021/07/29 01:43:21;;;;;;;7.38;4.00;;;;;;;15.75;100.00;97812.72;5026516;28;20025;-60
2021/07/29 01:45:47;;;;;;;5.60;3.92;;;;;;;15.92;100.00;97806.34;5027577;28;20125;-60
2021/07/29 01:48:12;;;;;;;11.95;4.35;;;;;;;15.51;100.00;97799.34;5028140;28;20028;-62
2021/07/29 01:50:37;;;;;;;5.03;3.33;;;;;;;15.98;100.00;97810.34;5026956;28;20048;-61
2021/07/29 01:53:03;;;;;;;7.13;4.05;;;;;;;15.45;100.00;97812.03;5027018;28;20041;-61
2021/07/29 01:55:28;;;;;;;7.13;4.35;;;;;;;15.68;100.00;97808.75;5028037;28;20038;-63
2021/07/29 01:57:53;;;;;;;5.47;3.90;;;;;;;15.99;100.00;97814.69;5027533;28;20025;-61
2021/07/29 02:00:19;;;;;;;9.63;4.38;;;;;;;15.49;100.00;97806.44;5028073;28;20151;-61
2021/07/29 02:02:44;;;;;;;4.05;2.95;;;;;;;16.22;100.00;97799.13;5027240;28;20026;-61
2021/07/29 02:05:10;;;;;;;6.55;4.30;;;;;;;15.82;100.00;97807.03;5025860;28;20017;-61
2021/07/29 02:07:35;;;;;;;6.70;3.97;;;;;;;15.97;100.00;97806.88;5025383;28;20025;-61
2021/07/29 02:10:00;;;;;;;5.53;3.83;;;;;;;15.58;100.00;97811.13;5027852;28;20033;-62
2021/07/29 02:12:26;;;;;;;14.35;3.92;;;;;;;15.53;100.00;97804.47;5027236;28;20056;-60
2021/07/29 02:14:51;;;;;;;5.15;3.80;;;;;;;15.82;100.00;97807.88;5028507;28;20438;-62
2021/07/29 02:17:20;;;;;;;9.23;4.90;;;;;;;15.67;100.00;97808.84;5027802;28;20129;-61
2021/07/29 02:19:46;;;;;;;7.25;4.22;;;;;;;15.81;100.00;97806.19;5027513;28;20024;-61
2021/07/29 02:22:12;;;;;;;8.50;3.75;;;;;;;15.92;100.00;97803.72;5025491;28;20041;-61
2021/07/29 02:24:37;;;;;;;7.25;4.05;;;;;;;15.84;100.00;97808.59;5026301;28;20036;-62
2021/07/29 02:27:03;;;;;;;7.32;4.32;;;;;;;15.91;100.00;97806.44;5028037;28;20094;-61
2021/07/29 02:29:28;;;;;;;6.53;3.90;;;;;;;16.10;100.00;97817.44;5028196;28;20042;-61
2021/07/29 02:31:53;;;;;;;5.85;3.38;;;;;;;16.09;100.00;97817.53;5027572;28;20128;-61
2021/07/29 02:34:18;;;;;;;9.00;4.03;;;;;;;15.93;100.00;97823.78;5027711;28;20587;-61
2021/07/29 02:36:44;;;;;;;6.32;4.18;;;;;;;15.68;100.00;97826.28;5026976;28;20590;-61
2021/07/29 02:39:09;;;;;;;6.93;4.70;;;;;;;15.52;100.00;97822.03;5026341;28;20773;-62
2021/07/29 02:41:35;;;;;;;5.90;4.28;;;;;;;15.46;100.00;97832.94;5026109;28;20589;-60
2021/07/29 02:44:01;;;;;;;6.45;4.57;;;;;;;15.47;100.00;97829.38;5025720;28;20028;-60
2021/07/29 02:46:27;;;;;;;6.57;4.55;;;;;;;15.43;100.00;97830.50;5027880;28;20087;-60
2021/07/29 02:48:53;;;;;;;5.53;4.03;;;;;;;15.75;100.00;97830.25;5028396;28;20041;-62
2021/07/29 02:51:18;;;;;;;6.95;3.97;;;;;;;15.58;100.00;97826.88;5025461;28;20094;-61
2021/07/29 02:53:43;;;;;;;8.27;4.40;;;;;;;15.39;100.00;97835.09;5026653;28;20033;-64
2021/07/29 02:56:09;;;;;;;6.07;4.20;;;;;;;15.44;100.00;97837.47;5026100;28;20040;-61
2021/07/29 02:58:35;;;;;;;8.43;4.80;;;;;;;15.49;100.00;97838.00;5026791;28;20040;-61
2021/07/29 03:01:00;;;;;;;7.90;4.20;;;;;;;15.35;100.00;97835.41;5027716;28;20667;-62
2021/07/29 03:03:26;;;;;;;8.00;4.30;;;;;;;15.40;100.00;97833.31;5025885;28;20021;-61
2021/07/29 03:05:51;;;;;;;7.25;4.30;;;;;;;15.27;100.00;97835.03;5024959;28;20072;-60
2021/07/29 03:08:16;;;;;;;6.65;3.88;;;;;;;15.54;100.00;97833.28;5027708;28;20068;-61
2021/07/29 03:10:48;;;;;;;7.15;4.03;;;;;;;15.36;100.00;97837.09;5027141;28;20034;-63
2021/07/29 03:13:14;;;;;;;7.07;4.22;;;;;;;15.15;100.00;97829.63;5024370;28;20076;-62
2021/07/29 03:15:40;;;;;;;7.53;4.18;;;;;;;15.01;100.00;97827.00;5025689;28;21020;-61
2021/07/29 03:18:05;;;;;;;5.70;4.15;;;;;;;15.12;100.00;97828.97;5026234;28;20642;-61
2021/07/29 03:20:31;;;;;;;5.75;3.75;;;;;;;15.40;100.00;97826.31;5024837;28;20610;-61
2021/07/29 03:22:56;;;;;;;5.90;4.07;;;;;;;15.26;100.00;97823.69;5027134;28;20670;-61
2021/07/29 03:25:21;;;;;;;6.65;3.70;;;;;;;15.14;100.00;97824.44;5027505;28;20638;-60
2021/07/29 03:27:47;;;;;;;7.68;4.35;;;;;;;14.85;100.00;97832.38;5025688;28;20029;-61
2021/07/29 03:30:13;;;;;;;9.50;4.53;;;;;;;15.03;100.00;97830.38;5026761;28;20025;-62
2021/07/29 03:32:38;;;;;;;6.80;4.40;;;;;;;14.52;100.00;97828.19;5025893;28;20025;-61
2021/07/29 03:35:04;;;;;;;8.15;4.78;;;;;;;14.60;100.00;97828.59;5027127;28;20029;-60
2021/07/29 03:37:30;;;;;;;7.50;4.93;;;;;;;14.88;100.00;97826.91;5028681;28;20048;-62
2021/07/29 03:39:55;;;;;;;8.18;4.30;;;;;;;14.95;100.00;97833.47;5026014;28;20025;-61
2021/07/29 03:42:22;;;;;;;9.88;4.75;;;;;;;14.75;100.00;97834.69;5027357;28;20037;-61
2021/07/29 03:44:48;;;;;;;9.73;4.60;;;;;;;14.77;100.00;97840.69;5025810;28;20033;-60
2021/07/29 03:47:13;;;;;;;6.15;3.63;;;;;;;14.97;100.00;97846.50;5027349;28;20042;-61
2021/07/29 03:49:39;;;;;;;8.52;4.95;;;;;;;14.46;100.00;97837.25;5023965;28;20541;-61
2021/07/29 03:52:04;;;;;;;7.45;4.97;;;;;;;14.35;100.00;97844.91;5026136;28;20076;-61
2021/07/29 03:54:31;;;;;;;8.35;4.72;;;;;;;14.30;100.00;97841.72;5025105;28;20075;-61
2021/07/29 03:56:56;;;;;;;9.15;4.30;;;;;;;14.48;100.00;97850.28;5024833;28;20033;-63
2021/07/29 03:59:21;;;;;;;7.65;4.40;;;;;;;14.43;100.00;97842.69;5024866;28;20075;-61
2021/07/29 04:01:47;;;;;;;6.68;3.95;;;;;;;14.77;100.00;97835.44;5024590;28;20037;-60
2021/07/29 04:04:12;;;;;;;5.82;4.00;;;;;;;15.00;100.00;97841.09;5025467;28;20025;-61
2021/07/29 04:06:40;;;;;;;9.43;4.38;;;;;;;14.55;100.00;97840.25;5025624;28;20061;-61
2021/07/29 04:09:05;;;;;;;5.45;3.42;;;;;;;14.88;100.00;97841.81;5025005;28;20029;-59
2021/07/29 04:11:30;;;;;;;7.80;3.92;;;;;;;14.97;100.00;97841.25;5022422;28;20033;-60
2021/07/29 04:13:56;;;;;;;7.70;4.47;;;;;;;14.88;100.00;97841.81;5026362;28;20399;-59
2021/07/29 04:16:21;;;;;;;7.80;3.70;;;;;;;15.28;100.00;97839.38;5029297;28;20604;-60
2021/07/29 04:18:46;;;;;;;6.13;4.35;;;;;;;14.81;100.00;97850.09;5030004;28;20037;-60
2021/07/29 04:21:15;;;;;;;5.15;3.50;;;;;;;16.10;100.00;97845.50;5028346;28;20037;-62
2021/07/29 04:23:41;;;;;;;8.57;4.18;;;;;;;16.00;98.34;97848.75;5029626;28;20044;-60
2021/07/29 04:26:06;;;;;;;7.80;4.15;;;;;;;16.45;99.43;97837.06;5030859;28;20033;-60
2021/07/29 04:28:32;;;;;;;5.35;3.80;;;;;;;16.02;100.00;97845.19;5029205;28;20044;-60
2021/07/29 04:30:57;;;;;;;8.98;3.40;;;;;;;16.57;97.64;97839.69;5029444;28;20405;-61
2021/07/29 04:33:22;;;;;;;5.93;3.80;;;;;;;16.06;97.83;97847.50;5029435;28;20024;-60
2021/07/29 04:35:48;;;;;;;7.45;3.88;;;;;;;15.70;98.38;97845.47;5029112;28;20030;-61
2021/07/29 04:38:13;;;;;;;5.85;3.78;;;;;;;15.80;96.63;97847.41;5027206;28;20511;-60
2021/07/29 04:40:38;;;;;;;7.32;3.75;;;;;;;15.68;98.91;97847.31;5031533;28;20182;-62
2021/07/29 04:43:04;;;;;;;5.18;3.80;;;;;;;15.96;95.46;97847.28;5028852;28;20024;-61
2021/07/29 04:45:29;;;;;;;7.85;3.47;;;;;;;15.60;96.42;97846.06;5028801;28;20090;-62
2021/07/29 04:47:55;;;;;;;6.55;3.95;;;;;;;15.57;97.56;97840.16;5027562;28;20692;-61
2021/07/29 04:50:20;;;;;;;6.93;4.10;;;;;;;15.91;95.78;97841.47;5028606;28;20052;-61
2021/07/29 04:52:46;;;;;;;7.00;3.85;;;;;;;15.77;97.33;97842.38;5029278;28;20016;-61
2021/07/29 04:55:11;;;;;;;6.13;4.00;;;;;;;15.96;96.68;97846.44;5028784;28;20093;-61
2021/07/29 04:57:36;;;;;;;7.15;4.70;;;;;;;15.91;97.11;97844.09;5027763;28;20021;-59
2021/07/29 05:00:02;;;;;;;7.07;4.28;;;;;;;15.91;97.26;97846.72;5029012;28;20017;-59
2021/07/29 05:02:28;;;;;;;7.15;3.67;;;;;;;16.10;97.69;97843.75;5015697;28;20029;-59
2021/07/29 05:04:53;;;;;;;9.43;4.00;;;;;;;16.40;94.64;97844.44;5029154;28;20021;-59
2021/07/29 05:07:18;;;;;;;6.53;4.00;;;;;;;16.32;93.92;97855.47;5033150;28;20694;-60
2021/07/29 05:09:44;;;;;;;8.73;4.00;;;;;;;15.83;96.72;97845.56;5028912;28;20171;-59
2021/07/29 05:12:09;;;;;;;6.53;4.35;;;;;;;15.94;96.33;97846.53;5028502;28;20046;-61
2021/07/29 05:14:34;;;;;;;5.45;3.90;;;;;;;16.18;95.03;97844.06;5030970;28;20120;-61
2021/07/29 05:17:01;;;;;;;9.77;4.00;;;;;;;16.59;94.45;97844.88;5031747;28;20047;-60
2021/07/29 05:19:26;;;;;;;7.45;4.03;;;;;;;16.84;92.71;97849.34;5031720;28;20028;-59
2021/07/29 05:21:52;;;;;;;5.85;3.58;;;;;;;17.03;91.17;97858.59;5030257;28;20433;-60
2021/07/29 05:24:17;;;;;;;5.55;3.67;;;;;;;16.90;91.85;97843.63;5030181;28;20825;-60
2021/07/29 05:26:43;;;;;;;4.43;3.10;;;;;;;17.34;91.34;97849.38;5030072;28;20064;-61
2021/07/29 05:29:09;;;;;;;8.98;3.38;;;;;;;17.31;91.05;97852.22;5030119;28;20434;-59
2021/07/29 05:31:36;;;;;;;7.18;3.78;;;;;;;17.41;90.12;97845.34;5026557;28;20052;-59
2021/07/29 05:34:02;;;;;;;6.82;3.55;;;;;;;17.67;90.42;97853.19;5028784;28;20175;-60
2021/07/29 05:36:27;;;;;;;5.75;3.53;;;;;;;17.80;88.99;97840.78;5031683;28;20388;-61
2021/07/29 05:38:53;;;;;;;4.65;3.40;;;;;;;18.02;88.14;97850.63;5030225;28;20021;-60
2021/07/29 05:41:19;;;;;;;4.55;3.17;;;;;;;18.53;85.33;97852.16;5031006;28;20041;-60
2021/07/29 05:43:44;;;;;;;6.07;3.50;;;;;;;18.74;85.94;97859.38;5030846;28;20052;-61
2021/07/29 05:46:11;;;;;;;5.65;3.55;;;;;;;18.47;85.51;97848.16;5030544;28;20479;-61
2021/07/29 05:48:37;;;;;;;8.00;4.07;;;;;;;18.30;86.78;97852.06;5029075;28;20111;-61
2021/07/29 05:51:03;;;;;;;6.85;4.30;;;;;;;18.37;87.68;97841.88;5029877;28;20707;-61
2021/07/29 05:53:28;;;;;;;9.38;4.28;;;;;;;19.61;81.02;97844.63;5031451;28;20716;-60
2021/07/29 05:55:56;;;;;;;9.55;3.60;;;;;;;22.89;72.43;97845.38;5031106;28;20136;-61
2021/07/29 05:58:22;;;;;;;10.02;3.90;;;;;;;22.13;69.28;97850.66;5031321;28;20036;-61
2021/07/29 06:00:48;;;;;;;7.20;3.30;;;;;;;23.79;64.44;97858.19;5029114;28;20037;-59
2021/07/29 06:03:13;;;;;;;5.45;3.25;;;;;;;24.00;63.22;97845.44;5028972;28;20024;-61
2021/07/29 06:05:39;;;;;;;4.40;2.90;;;;;;;26.22;56.12;97849.38;5027293;28;20538;-60
2021/07/29 06:08:04;;;;;;;5.82;2.95;;;;;;;24.80;57.51;97848.13;5030144;28;20094;-61
2021/07/29 06:10:29;;;;;;;4.32;2.75;;;;;;;25.33;54.93;97853.47;5029727;28;20106;-61
2021/07/29 06:12:55;;;;;;;8.38;3.08;;;;;;;24.80;56.25;97848.13;5027544;28;20363;-60
2021/07/29 06:15:20;;;;;;;6.53;3.00;;;;;;;25.50;55.92;97857.03;5028875;28;20591;-61
2021/07/29 06:17:50;;;;;;;6.05;3.00;;;;;;;25.52;55.32;97853.19;5029905;28;20380;-60
2021/07/29 06:20:15;;;;;;;7.78;3.10;;;;;;;26.75;50.92;97843.72;5029920;28;20716;-60
2021/07/29 06:22:40;;;;;;;5.63;2.75;;;;;;;26.92;51.28;97840.00;5028543;28;20021;-61
2021/07/29 06:25:08;;;;;;;6.40;2.90;;;;;;;27.83;49.28;97833.28;5028577;28;20072;-59
2021/07/29 06:27:35;;;;;;;6.07;2.78;;;;;;;26.52;51.21;97849.69;5032283;28;20411;-60
2021/07/29 06:30:00;;;;;;;7.40;3.08;;;;;;;24.61;56.67;97848.31;5028647;28;20025;-60
2021/07/29 06:32:25;;;;;;;5.18;3.05;;;;;;;25.97;53.15;97848.50;5030239;28;20049;-60
2021/07/29 06:34:51;;;;;;;5.65;3.15;;;;;;;26.02;54.38;97848.84;5028285;28;20124;-60
2021/07/29 06:37:16;;;;;;;6.47;3.40;;;;;;;23.53;59.78;97842.91;5028746;28;20467;-61
2021/07/29 06:39:42;;;;;;;5.63;3.33;;;;;;;22.66;61.83;97844.03;5026714;28;20030;-61
2021/07/29 06:42:07;;;;;;;6.90;3.65;;;;;;;22.42;63.49;97847.16;5028543;28;20048;-60
2021/07/29 06:44:32;;;;;;;8.35;3.63;;;;;;;22.40;62.64;97859.75;5028941;28;20048;-61
2021/07/29 06:46:57;;;;;;;5.93;3.20;;;;;;;22.44;62.70;97859.34;5028622;28;20038;-60
2021/07/29 06:49:34;;;;;;;7.47;3.10;;;;;;;22.03;64.89;97858.59;5027543;28;20112;-60
2021/07/29 06:51:59;;;;;;;6.43;3.28;;;;;;;21.71;65.34;97851.72;5030667;28;20097;-61
2021/07/29 06:54:25;;;;;;;6.53;3.30;;;;;;;21.88;64.55;97855.50;5037729;28;20475;-61
2021/07/29 06:56:50;;;;;;;7.95;3.60;;;;;;;22.14;64.70;97853.16;5028723;28;20045;-61
2021/07/29 06:59:15;;;;;;;6.05;3.30;;;;;;;21.52;67.18;97854.31;5028332;28;20028;-61
2021/07/29 07:01:40;;;;;;;5.95;3.28;;;;;;;22.34;64.36;97855.84;5029130;28;20037;-60
2021/07/29 07:04:06;;;;;;;5.20;3.28;;;;;;;21.53;66.64;97856.00;5029690;28;20626;-60
2021/07/29 07:06:34;;;;;;;4.40;2.97;;;;;;;22.45;64.21;97861.00;5029086;28;20140;-59
2021/07/29 07:08:59;;;;;;;5.75;3.25;;;;;;;22.03;66.29;97853.28;5029992;28;20364;-59
2021/07/29 07:11:25;;;;;;;6.22;3.40;;;;;;;21.62;66.90;97852.53;5029443;28;20502;-60
2021/07/29 07:13:50;;;;;;;5.35;3.15;;;;;;;21.53;67.32;97858.66;5028242;28;20027;-60
2021/07/29 07:16:15;;;;;;;5.75;3.25;;;;;;;21.55;67.38;97862.84;5028414;28;20044;-61
2021/07/29 07:18:41;;;;;;;5.38;3.17;;;;;;;21.71;66.02;97854.38;5028045;28;20014;-60
2021/07/29 07:21:08;;;;;;;5.85;3.45;;;;;;;21.63;66.71;97856.84;5030730;28;20040;-61
2021/07/29 07:23:35;;;;;;;6.38;3.03;;;;;;;22.26;66.44;97848.56;5044576;28;20033;-60
2021/07/29 07:26:01;;;;;;;5.50;3.35;;;;;;;22.11;65.98;97853.44;5029390;28;20049;-59
2021/07/29 07:28:27;;;;;;;5.97;3.30;;;;;;;22.88;65.08;97843.72;5028329;28;20040;-60
2021/07/29 07:30:52;;;;;;;7.28;3.20;;;;;;;22.11;65.14;97850.78;5029729;28;20034;-60
2021/07/29 07:33:17;;;;;;;4.22;3.13;;;;;;;22.59;64.83;97850.91;5029874;28;20029;-60
2021/07/29 07:35:43;;;;;;;6.43;3.40;;;;;;;22.47;64.53;97840.44;5027479;28;20052;-60
2021/07/29 07:38:08;;;;;;;7.15;2.90;;;;;;;22.62;65.10;97847.97;5027194;28;20080;-59
2021/07/29 07:40:35;;;;;;;6.57;3.33;;;;;;;22.54;64.23;97850.53;5027544;28;20047;-58
2021/07/29 07:43:01;;;;;;;6.88;3.13;;;;;;;22.96;64.65;97847.50;5029110;28;20086;-59
2021/07/29 07:45:26;;;;;;;7.07;3.00;;;;;;;23.35;62.55;97844.69;5026312;28;20494;-60
2021/07/29 07:47:52;;;;;;;7.88;3.30;;;;;;;22.83;63.22;97856.63;5029118;28;20030;-61
2021/07/29 07:50:17;;;;;;;5.30;2.97;;;;;;;23.35;63.67;97840.22;5031970;28;20103;-58
2021/07/29 07:52:43;;;;;;;6.43;3.15;;;;;;;23.61;61.91;97840.34;5031304;28;20036;-58
2021/07/29 07:55:08;;;;;;;5.05;3.05;;;;;;;23.34;62.25;97832.38;5033083;28;20029;-61
2021/07/29 07:57:33;;;;;;;6.05;3.00;;;;;;;24.31;59.50;97830.91;5033073;28;20060;-60
2021/07/29 07:59:59;;;;;;;5.88;2.80;;;;;;;23.73;61.56;97832.13;5032624;28;20228;-59
2021/07/29 08:02:25;;;;;;;6.35;2.70;;;;;;;24.21;59.55;97828.31;5030563;28;20090;-60
2021/07/29 08:04:51;;;;;;;5.03;2.90;;;;;;;24.25;59.55;97827.03;5033790;28;20549;-59
2021/07/29 08:07:17;;;;;;;7.10;3.08;;;;;;;24.01;59.67;97831.13;5033130;28;20065;-59
2021/07/29 08:09:42;;;;;;;4.32;2.63;;;;;;;24.18;59.06;97817.97;5031510;28;20052;-60
2021/07/29 08:12:07;;;;;;;4.63;2.90;;;;;;;24.31;60.05;97821.06;5032649;28;20411;-58
2021/07/29 08:14:34;;;;;;;4.05;2.60;;;;;;;24.64;58.99;97813.34;5031064;28;20108;-58
2021/07/29 08:17:00;;;;;;;6.05;2.63;;;;;;;24.37;58.85;97812.47;5033298;28;20052;-59
2021/07/29 08:19:25;;;;;;;5.07;2.75;;;;;;;24.89;55.72;97802.84;5031171;28;20056;-60
2021/07/29 08:21:51;;;;;;;5.18;2.70;;;;;;;24.94;56.53;97806.69;5031148;28;20033;-61
2021/07/29 08:24:17;;;;;;;4.63;2.63;;;;;;;25.40;54.71;97806.41;5032956;28;20052;-61
2021/07/29 08:26:44;;;;;;;4.95;2.90;;;;;;;25.67;53.69;97812.50;5032900;28;20522;-62
2021/07/29 08:29:09;;;;;;;4.32;2.63;;;;;;;27.28;50.38;97800.25;5031600;28;20168;-61
2021/07/29 08:31:34;;;;;;;5.25;3.08;;;;;;;25.87;52.67;97803.19;5030229;28;20136;-61
2021/07/29 08:34:00;;;;;;;6.10;3.08;;;;;;;27.37;50.06;97790.34;5031944;28;20494;-60
2021/07/29 08:36:25;;;;;;;3.78;2.70;;;;;;;28.70;47.21;97796.47;5030282;28;20090;-59
2021/07/29 08:38:51;;;;;;;6.47;2.83;;;;;;;27.99;46.68;97800.22;5031330;28;20074;-61
2021/07/29 08:41:18;;;;;;;4.55;2.40;;;;;;;28.59;45.54;97792.38;5029342;28;20103;-60
2021/07/29 08:43:43;;;;;;;6.63;2.70;;;;;;;29.26;44.31;97796.84;5032201;28;20036;-62
2021/07/29 08:46:10;;;;;;;4.20;2.20;;;;;;;30.77;43.83;97796.94;5032700;28;20029;-60
2021/07/29 08:48:43;;;;;;;5.78;2.60;;;;;;;30.34;41.90;97791.63;5031466;28;20394;-61
2021/07/29 08:51:08;;;;;;;4.75;2.60;;;;;;;31.50;40.52;97777.66;5032593;28;20033;-60
2021/07/29 08:53:34;;;;;;;4.57;2.40;;;;;;;31.01;40.88;97778.66;5031371;28;20036;-60
2021/07/29 08:55:59;;;;;;;6.03;2.50;;;;;;;31.30;39.60;97772.16;5030973;28;20141;-61
2021/07/29 08:58:24;;;;;;;3.88;2.60;;;;;;;30.89;39.08;97765.72;5030819;28;20541;-61
2021/07/29 09:01:12;;;;;;;5.25;2.58;;;;;;;28.96;42.74;97778.03;5029247;28;20069;-61
2021/07/29 09:03:38;;;;;;;3.80;2.50;;;;;;;29.89;41.30;97775.69;5031641;28;20030;-62
2021/07/29 09:06:10;;;;;;;5.22;2.63;;;;;;;29.76;40.83;97775.56;5032134;28;20417;-60
2021/07/29 09:08:46;;;;;;;6.05;2.80;;;;;;;30.39;39.97;97777.63;5032140;28;20025;-61
2021/07/29 09:11:35;;;;;;;3.97;2.40;;;;;;;30.64;41.05;97777.97;5031172;28;20674;-61
2021/07/29 09:14:15;;;;;;;4.38;2.80;;;;;;;28.02;43.89;97769.53;5036983;28;20116;-60
2021/07/29 09:17:04;;;;;;;4.95;2.70;;;;;;;28.23;43.40;97766.16;5030504;28;20037;-60
2021/07/29 09:19:32;;;;;;;4.28;2.70;;;;;;;27.63;44.06;97773.97;5032245;28;20017;-60
2021/07/29 09:22:23;;;;;;;5.38;2.70;;;;;;;26.76;45.82;97771.28;5029149;28;20503;-61
2021/07/29 09:24:56;;;;;;;;;;;;;;;25.94;47.70;97780.19;5031925;28;20107;-60
2021/07/29 09:27:24;;;;;;;4.28;2.60;;;;;;;25.66;48.45;97776.09;5029489;28;19924;-59
2021/07/29 09:29:50;;;;;;;4.47;2.80;;;;;;;26.33;48.22;97768.00;5031419;28;20470;-62
2021/07/29 09:32:20;;;;;;;8.02;2.75;;;;;;;26.24;48.67;97763.66;5046447;28;20038;-59
2021/07/29 09:34:48;;;;;;;4.25;2.95;;;;;;;26.37;46.89;97768.50;5030283;28;20482;-59
2021/07/29 09:37:15;;;;;;;4.82;2.83;;;;;;;25.90;47.84;97772.66;5029703;28;20041;-62
2021/07/29 09:39:42;;;;;;;5.18;2.90;;;;;;;25.58;48.95;97764.44;5030236;28;20031;-60
2021/07/29 09:42:22;;;;;;;5.25;2.97;;;;;;;25.48;49.47;97771.75;5030083;28;20034;-61
2021/07/29 09:44:50;;;;;;;4.85;3.00;;;;;;;26.34;48.12;97767.00;5029391;28;20037;-61
2021/07/29 09:47:19;;;;;;;6.32;2.90;;;;;;;26.37;49.01;97765.81;5029851;28;20049;-60
2021/07/29 09:49:46;;;;;;;5.90;3.00;;;;;;;25.09;50.32;97777.59;5027351;28;20407;-60
2021/07/29 09:52:12;;;;;;;5.03;2.95;;;;;;;25.11;48.84;97775.59;5031092;28;20044;-61
2021/07/29 09:54:40;;;;;;;6.57;2.95;;;;;;;26.22;47.50;97763.81;5032173;28;20040;-61
2021/07/29 09:57:07;;;;;;;3.95;2.85;;;;;;;26.13;48.41;97764.84;5031423;28;20123;-60
2021/07/29 09:59:33;;;;;;;5.32;2.80;;;;;;;26.70;44.97;97762.09;5031889;28;20072;-60
2021/07/29 10:02:00;;;;;;;5.40;3.10;;;;;;;28.73;42.10;97763.88;5031446;28;20494;-61
2021/07/29 10:04:31;;;;;;;7.32;2.97;;;;;;;30.24;39.68;97761.53;5031585;28;20041;-60
2021/07/29 10:06:59;;;;;;;;;;;;;;;30.10;38.96;97753.31;5029632;28;20033;-61
2021/07/29 10:09:27;;;;;;;4.43;3.10;;;;;;;30.12;37.97;97751.28;5030754;28;19924;-60
2021/07/29 10:11:54;;;;;;;5.63;2.83;;;;;;;30.77;37.52;97751.16;5028278;28;20043;-61
2021/07/29 10:14:49;;;;;;;4.20;2.72;;;;;;;30.62;38.02;97739.66;5028634;28;20021;-61
2021/07/29 10:17:17;;;;;;;5.45;3.05;;;;;;;29.77;39.31;97745.78;5029796;28;20037;-60
2021/07/29 10:20:10;;;;;;;7.60;2.90;;;;;;;27.96;42.41;97746.13;5028971;28;20021;-61
2021/07/29 10:22:36;;;;;;;8.18;3.13;;;;;;;27.74;43.31;97748.59;5029532;28;20053;-60
2021/07/29 10:25:01;;;;;;;4.38;2.95;;;;;;;27.07;43.74;97747.28;5030450;28;20031;-62
2021/07/29 10:27:27;;;;;;;5.30;3.20;;;;;;;27.18;42.12;97754.06;5029173;28;20068;-62
2021/07/29 10:29:52;;;;;;;6.05;3.20;;;;;;;28.42;41.80;97746.88;5026474;28;20029;-59
2021/07/29 10:32:47;;;;;;;5.85;3.10;;;;;;;28.22;42.54;97754.63;5029353;28;20034;-60
2021/07/29 10:35:32;;;;;;;4.45;3.20;;;;;;;29.53;40.12;97762.25;5029729;28;20035;-60
2021/07/29 10:37:58;;;;;;;7.38;3.10;;;;;;;29.48;39.68;97756.59;5023048;28;20056;-62
2021/07/29 10:40:33;;;;;;;5.57;3.45;;;;;;;27.86;43.42;97757.91;5030566;28;20041;-60
2021/07/29 10:43:24;;;;;;;6.55;3.20;;;;;;;30.01;39.60;97751.78;5028885;28;20022;-61
2021/07/29 10:45:53;;;;;;;5.13;3.30;;;;;;;29.94;40.33;97758.97;5028089;28;20094;-61
2021/07/29 10:48:41;;;;;;;5.28;2.95;;;;;;;29.17;40.77;97757.69;5026659;28;20033;-60
2021/07/29 10:51:16;;;;;;;4.78;3.38;;;;;;;29.15;40.22;97757.03;5031449;28;20163;-60
2021/07/29 10:53:44;;;;;;;5.80;3.22;;;;;;;29.13;41.13;97753.69;5028392;28;20029;-60
2021/07/29 10:56:12;;;;;;;4.25;3.10;;;;;;;28.85;41.72;97757.03;5029047;28;20037;-61
2021/07/29 10:58:44;;;;;;;5.45;3.22;;;;;;;29.17;40.75;97755.00;5029608;28;20501;-60
2021/07/29 11:01:11;;;;;;;5.50;3.15;;;;;;;29.01;40.27;97750.66;5029299;28;20094;-60
2021/07/29 11:04:01;;;;;;;4.60;3.10;;;;;;;29.36;40.38;97759.78;5026020;28;20029;-62
2021/07/29 11:06:38;;;;;;;5.63;3.20;;;;;;;27.72;42.59;97749.78;5027583;28;20037;-59
2021/07/29 11:09:10;;;;;;;6.38;3.28;;;;;;;28.39;42.12;97749.09;5029311;28;20115;-61
2021/07/29 11:11:37;;;;;;;5.90;3.03;;;;;;;29.53;40.53;97751.50;5028463;28;20045;-60
2021/07/29 11:14:02;;;;;;;5.63;3.10;;;;;;;29.38;40.65;97749.69;5025960;28;20064;-60
2021/07/29 11:16:29;;;;;;;4.95;2.95;;;;;;;28.95;41.16;97746.84;5026734;28;20133;-60
2021/07/29 11:18:59;;;;;;;5.80;2.97;;;;;;;28.17;42.71;97743.59;5029208;28;20475;-61
2021/07/29 11:21:24;;;;;;;6.05;3.30;;;;;;;28.92;40.36;97747.22;5028096;28;20534;-60
2021/07/29 11:23:50;;;;;;;4.80;3.00;;;;;;;29.66;38.84;97732.81;5025627;28;20037;-61
2021/07/29 11:26:15;;;;;;;5.03;3.20;;;;;;;29.71;39.41;97729.56;5036354;28;20037;-64
2021/07/29 11:28:41;;;;;;;4.88;2.90;;;;;;;29.75;40.23;97742.44;5029119;28;20029;-61
2021/07/29 11:31:06;;;;;;;7.22;3.20;;;;;;;29.35;38.45;97742.03;5027845;28;20041;-60
2021/07/29 11:33:32;;;;;;;6.47;2.80;;;;;;;28.18;42.26;97734.53;5027177;28;20107;-60